Terminal Aerodrome Forecast
Issued by NWS Bismarck, ND

Home | Current Version | Previous Version | Text Only | Print | Product List | Glossary On
Versions: 1 2 3 4 5 6 7 8 9 10 11 12
000
FTUS43 KBIS 221100
TAFISN
TAF
KISN 221132Z 2212/2312 26014KT P6SM BKN050
     FM221800 28015G22KT P6SM SCT050
     FM230000 25007KT P6SM SKC=

USA.gov is the U.S. government's official web portal to all federal, state and local government web resources and services.